Map

Track Data

SID SEASON NUMBER BASIN SUBBASIN NAME ISO_TIME NATURE LAT LON WMO_WIND WMO_PRES WMO_AGENCY TRACK_TYPE DIST2LAND LANDFALL IFLAG USA_AGENCY USA_ATCF_ID USA_LAT USA_LON USA_RECORD USA_STATUS USA_WIND USA_PRES USA_SSHS USA_R34_NE USA_R34_SE USA_R34_SW USA_R34_NW USA_R50_NE USA_R50_SE USA_R50_SW USA_R50_NW USA_R64_NE USA_R64_SE USA_R64_SW USA_R64_NW USA_POCI USA_ROCI USA_RMW USA_EYE TOKYO_LAT TOKYO_LON TOKYO_GRADE TOKYO_WIND TOKYO_PRES TOKYO_R50_DIR TOKYO_R50_LONG TOKYO_R50_SHORT TOKYO_R30_DIR TOKYO_R30_LONG TOKYO_R30_SHORT TOKYO_LAND CMA_LAT CMA_LON CMA_CAT CMA_WIND CMA_PRES HKO_LAT HKO_LON HKO_CAT HKO_WIND HKO_PRES NEWDELHI_LAT NEWDELHI_LON NEWDELHI_GRADE NEWDELHI_WIND NEWDELHI_PRES NEWDELHI_CI NEWDELHI_DP NEWDELHI_POCI REUNION_LAT REUNION_LON REUNION_TYPE REUNION_WIND REUNION_PRES REUNION_TNUM REUNION_CI REUNION_RMW REUNION_R34_NE REUNION_R34_SE REUNION_R34_SW REUNION_R34_NW REUNION_R50_NE REUNION_R50_SE REUNION_R50_SW REUNION_R50_NW REUNION_R64_NE REUNION_R64_SE REUNION_R64_SW REUNION_R64_NW BOM_LAT BOM_LON BOM_TYPE BOM_WIND BOM_PRES BOM_TNUM BOM_CI BOM_RMW BOM_R34_NE BOM_R34_SE BOM_R34_SW BOM_R34_NW BOM_R50_NE BOM_R50_SE BOM_R50_SW BOM_R50_NW BOM_R64_NE BOM_R64_SE BOM_R64_SW BOM_R64_NW BOM_ROCI BOM_POCI BOM_EYE BOM_POS_METHOD BOM_PRES_METHOD NADI_LAT NADI_LON NADI_CAT NADI_WIND NADI_PRES WELLINGTON_LAT WELLINGTON_LON WELLINGTON_WIND WELLINGTON_PRES DS824_LAT DS824_LON DS824_STAGE DS824_WIND DS824_PRES TD9636_LAT TD9636_LON TD9636_STAGE TD9636_WIND TD9636_PRES TD9635_LAT TD9635_LON TD9635_WIND TD9635_PRES TD9635_ROCI NEUMANN_LAT NEUMANN_LON NEUMANN_CLASS NEUMANN_WIND NEUMANN_PRES MLC_LAT MLC_LON MLC_CLASS MLC_WIND MLC_PRES USA_GUST BOM_GUST BOM_GUST_PER REUNION_GUST REUNION_GUST_PER USA_SEAHGT USA_SEARAD_NE USA_SEARAD_SE USA_SEARAD_SW USA_SEARAD_NW STORM_SPEED STORM_DIR
1896285N12331 1896 43 NA NA NOT_NAMED 1896-10-10 12:00:00 TS 12.2000 -29.4000 main 1317 1307 _____________O -1 12.2000 -29.4000 TD 30 8 8
1896285N12331 1896 43 NA NA NOT_NAMED 1896-10-10 15:00:00 TS 12.6050 -29.3500 main 1307 1288 _____________P -1 12.6050 -29.3500 TD 32 8 7
1896285N12331 1896 43 NA NA NOT_NAMED 1896-10-10 18:00:00 TS 13.0000 -29.3000 main 1288 1281 _____________O -1 13.0000 -29.3000 TS 35 8 7
1896285N12331 1896 43 NA NA NOT_NAMED 1896-10-10 21:00:00 TS 13.3850 -29.2500 main 1270 1265 _____________P -1 13.3850 -29.2500 TS 37 8 7
1896285N12331 1896 43 NA NA NOT_NAMED 1896-10-11 00:00:00 TS 13.8000 -29.2000 main 1265 1260 _____________O -1 13.8000 -29.2000 TS 40 9 6
1896285N12331 1896 43 NA NA NOT_NAMED 1896-10-11 03:00:00 TS 14.3000 -29.1500 main 1250 1247 _____________P -1 14.3000 -29.1500 TS 42 10 6
1896285N12331 1896 43 NA NA NOT_NAMED 1896-10-11 06:00:00 TS 14.8000 -29.1000 main 1247 1247 _____________O -1 14.8000 -29.1000 TS 45 10 6
1896285N12331 1896 43 NA NA NOT_NAMED 1896-10-11 09:00:00 TS 15.2525 -29.0575 main 1248 1237 _____________P -1 15.2525 -29.0575 TS 47 8 7
1896285N12331 1896 43 NA NA NOT_NAMED 1896-10-11 12:00:00 TS 15.6000 -29.0000 main 1238 1228 _____________O -1 15.6000 -29.0000 TS 50 5 15
1896285N12331 1896 43 NA NA NOT_NAMED 1896-10-11 15:00:00 TS 15.7575 -28.9149 main 1229 1218 _____________P -1 15.7575 -28.9149 TS 52 4 33
1896285N12331 1896 43 NA NA NOT_NAMED 1896-10-11 18:00:00 TS 15.9000 -28.8000 main 1219 1210 _____________O -1 15.9000 -28.8000 TS 55 5 29
1896285N12331 1896 43 NA NA NOT_NAMED 1896-10-11 21:00:00 TS 16.2200 -28.6501 main 1212 1195 _____________P -1 16.2200 -28.6501 TS 52 8 22
1896285N12331 1896 43 NA NA NOT_NAMED 1896-10-12 00:00:00 TS 16.6000 -28.5000 main 1197 1190 _____________O -1 16.6000 -28.5000 TS 50 8 19
1896285N12331 1896 43 NA NA NOT_NAMED 1896-10-12 03:00:00 TS 16.9500 -28.3924 main 1192 1185 _____________P -1 16.9500 -28.3924 TS 47 7 15
1896285N12331 1896 43 NA NA NOT_NAMED 1896-10-12 06:00:00 TS 17.3000 -28.3000 main 1190 1185 _____________O -1 17.3000 -28.3000 TS 45 8 16
1896285N12331 1896 43 NA NA NOT_NAMED 1896-10-12 09:00:00 TS 17.6725 -28.1776 main 1190 1183 _____________P -1 17.6725 -28.1776 TS 42 7 15
1896285N12331 1896 43 NA NA NOT_NAMED 1896-10-12 12:00:00 TS 18.0000 -28.1000 main 1189 1188 _____________O -1 18.0000 -28.1000 TS 40 6 5
1896285N12331 1896 43 NA NA NOT_NAMED 1896-10-12 15:00:00 TS 18.2225 -28.1125 main 1188 1185 _____________P -1 18.2225 -28.1125 TS 35 4 347
1896285N12331 1896 43 NA NA NOT_NAMED 1896-10-12 18:00:00 TS 18.4000 -28.2000 main 1192 1190 _____________O -1 18.4000 -28.2000 TD 30 4 331
1896285N12331 1896 43 NA NA NOT_NAMED 1896-10-12 21:00:00 TS 18.6000 -28.3275 main 1197 1197 _____________P -1 18.6000 -28.3275 TD 27 5 325
1896285N12331 1896 43 NA NA NOT_NAMED 1896-10-13 00:00:00 TS 18.8000 -28.5000 main 1213 1213 _____________O -1 18.8000 -28.5000 TD 25 5 320
1896285N12331 1896 43 NA NA NOT_NAMED 1896-10-13 03:00:00 TS 19.0075 -28.6925 main 1229 1226 _____________P -1 19.0075 -28.6925 TD 22 6 317
1896285N12331 1896 43 NA NA NOT_NAMED 1896-10-13 06:00:00 DS 19.2000 -28.9000 main 1245 1245 _____________O -1 19.2000 -28.9000 LO 20 5 312
1896285N12331 1896 43 NA NA NOT_NAMED 1896-10-13 09:00:00 DS 19.3600 -29.1025 main 1262 1262 _____________P -1 19.3600 -29.1025 LO 20 5 309
1896285N12331 1896 43 NA NA NOT_NAMED 1896-10-13 12:00:00 DS 19.5000 -29.3000 main 1281 _____________O -1 19.5000 -29.3000 LO 20 5 307

About IBTrACS Database

This database is a web-friendly format of International Best Track Archive for Climate Stewardship (IBTrACS), a global best track data archive curated by NOAA dating back to 1842.

Updated: 2021-11-26